Time;durP1;ratioP1;P1;durP2;ratioP2;P2;SDS_P1;SDS_P2;PMS_P1;PMS_P2;Temp;Humidity;BMP_temperature;BMP_pressure;BME280_temperature;BME280_humidity;BME280_pressure;Samples;Min_cycle;Max_cycle;Signal;HPM_P1;HPM_P2
2022/12/21 00:02:09;;;;;;;9.43;4.67;;;8.60;99.90;;;8.72;nan;100390.09;4988062;28;20639;-66
2022/12/21 00:04:36;;;;;;;3.60;1.77;;;8.60;99.90;;;8.76;nan;100393.31;4994843;28;20634;-66
2022/12/21 00:07:03;;;;;;;2.47;1.57;;;8.70;99.90;;;8.78;nan;100386.22;5009005;28;20642;-64
2022/12/21 00:09:30;;;;;;;8.00;3.87;;;8.70;99.90;;;8.70;nan;100388.53;4992697;28;20670;-65
2022/12/21 00:11:57;;;;;;;11.77;3.10;;;8.70;99.90;;;8.79;nan;100391.34;4993883;28;21205;-65
2022/12/21 00:14:23;;;;;;;8.33;3.83;;;8.70;99.90;;;8.90;nan;100388.00;4989661;28;20644;-65
2022/12/21 00:16:50;;;;;;;3.03;2.40;;;8.70;99.90;;;8.94;nan;100390.28;4984649;28;20629;-64
2022/12/21 00:19:18;;;;;;;6.23;3.30;;;8.80;99.90;;;8.86;nan;100379.56;4989328;28;20666;-64
2022/12/21 00:21:45;;;;;;;2.20;1.60;;;8.80;99.90;;;8.95;nan;100378.94;4993264;28;20684;-65
2022/12/21 00:24:12;;;;;;;7.00;4.00;;;8.80;99.90;;;8.96;nan;100375.41;4993134;28;20642;-65
2022/12/21 00:26:39;;;;;;;4.57;2.00;;;8.90;99.90;;;8.93;nan;100375.63;4994613;28;20618;-65
2022/12/21 00:29:06;;;;;;;5.20;3.50;;;8.90;99.90;;;8.98;nan;100381.34;4998433;28;21381;-65
2022/12/21 00:31:35;;;;;;;3.40;3.00;;;8.90;99.90;;;9.11;nan;100371.75;4990127;28;20635;-65
2022/12/21 00:34:03;;;;;;;5.57;4.00;;;8.90;99.90;;;9.13;nan;100376.84;4994494;28;21235;-64
2022/12/21 00:36:31;;;;;;;1.30;1.20;;;9.00;99.90;;;9.27;nan;100380.13;4993835;28;20626;-65
2022/12/21 00:38:59;;;;;;;2.07;1.87;;;9.00;99.90;;;9.25;nan;100384.63;4994569;28;20726;-64
2022/12/21 00:41:28;;;;;;;2.27;2.10;;;9.10;99.90;;;9.22;nan;100389.22;4993779;28;20646;-64
2022/12/21 00:43:56;;;;;;;5.03;4.47;;;9.10;99.90;;;9.28;nan;100380.97;4976756;28;21170;-65
2022/12/21 00:46:31;;;;;;;7.57;3.80;;;9.10;99.90;;;9.38;nan;100380.22;4993369;28;20653;-65
2022/12/21 00:49:04;;;;;;;5.47;3.20;;;9.10;99.90;;;9.49;nan;100379.44;4991946;28;20682;-65
2022/12/21 00:51:34;;;;;;;3.47;2.63;;;9.20;99.90;;;9.43;nan;100374.69;4993408;28;21058;-65
2022/12/21 00:54:01;;;;;;;3.10;2.80;;;9.20;99.90;;;9.42;nan;100380.81;4992693;28;20621;-65
2022/12/21 00:56:28;;;;;;;2.20;1.07;;;9.30;99.90;;;9.39;nan;100368.84;4993984;28;20634;-64
2022/12/21 00:58:55;;;;;;;3.20;2.53;;;9.30;99.90;;;9.30;nan;100382.53;4976767;28;20653;-64
2022/12/21 01:01:26;;;;;;;3.80;3.20;;;9.30;99.90;;;9.39;nan;100379.25;4992667;28;20655;-65
2022/12/21 01:03:55;;;;;;;3.40;1.80;;;9.30;99.90;;;9.28;nan;100379.19;4992349;28;21024;-65
2022/12/21 01:06:33;;;;;;;1.40;0.83;;;9.20;99.90;;;9.31;nan;100376.38;4993548;28;20618;-65
2022/12/21 01:09:04;;;;;;;1.47;1.40;;;9.20;99.90;;;9.33;nan;100374.50;4957441;28;20676;-65
2022/12/21 01:11:31;;;;;;;2.80;2.40;;;9.20;99.90;;;9.30;nan;100377.31;4974916;28;20685;-65
2022/12/21 01:13:59;;;;;;;3.13;1.77;;;9.30;99.90;;;9.36;nan;100378.66;4961826;28;20632;-67
2022/12/21 01:16:32;;;;;;;3.10;2.17;;;9.20;99.90;;;9.29;nan;100380.00;4984236;28;20643;-65
2022/12/21 01:19:01;;;;;;;4.87;2.93;;;9.20;99.90;;;9.30;nan;100379.09;4986924;28;21086;-65
2022/12/21 01:21:30;;;;;;;5.27;2.43;;;9.20;99.90;;;9.12;nan;100376.00;4990223;28;20630;-65
2022/12/21 01:23:58;;;;;;;1.10;1.00;;;9.20;99.90;;;9.14;nan;100375.88;4975435;28;20704;-65
2022/12/21 01:26:25;;;;;;;2.70;1.97;;;9.10;99.90;;;9.20;nan;100380.66;4993404;28;20641;-65
2022/12/21 01:28:53;;;;;;;2.17;1.97;;;9.10;99.90;;;9.21;nan;100383.16;4992156;28;20677;-65
2022/12/21 01:31:20;;;;;;;4.60;3.27;;;9.20;99.90;;;9.22;nan;100377.00;4993083;28;20649;-65
2022/12/21 01:33:47;;;;;;;4.00;2.37;;;9.20;99.90;;;9.18;nan;100385.13;4993574;28;20643;-65
2022/12/21 01:36:17;;;;;;;2.83;1.53;;;9.10;99.90;;;9.25;nan;100389.81;4993204;28;20624;-65
2022/12/21 01:38:45;;;;;;;4.67;2.70;;;9.20;99.90;;;9.31;nan;100386.78;4991115;28;21084;-65
2022/12/21 01:41:22;;;;;;;3.10;2.80;;;9.20;99.90;;;9.27;nan;100387.94;4992777;28;21016;-65
2022/12/21 01:43:51;;;;;;;2.63;2.43;;;9.20;99.90;;;9.25;nan;100384.63;4990934;28;20645;-65
2022/12/21 01:46:46;;;;;;;5.83;3.60;;;9.20;99.90;;;9.25;nan;100388.97;4966253;28;21067;-65
2022/12/21 01:49:29;;;;;;;2.33;2.17;;;9.20;99.90;;;9.36;nan;100384.69;4983832;28;20683;-65
2022/12/21 01:52:10;;;;;;;2.90;2.00;;;9.20;99.90;;;9.48;nan;100382.13;4977246;28;20639;-65
2022/12/21 01:54:48;;;;;;;3.37;2.80;;;9.30;99.90;;;9.55;nan;100380.78;4986706;28;20988;-66
2022/12/21 01:57:22;;;;;;;2.33;2.13;;;9.40;99.90;;;9.66;nan;100370.41;4991533;28;20746;-65
2022/12/21 01:59:56;;;;;;;2.47;2.27;;;9.50;99.90;;;9.58;nan;100378.78;4990504;28;21039;-64
2022/12/21 02:02:32;;;;;;;3.27;2.13;;;9.50;99.90;;;9.70;nan;100371.84;4986912;28;20642;-65
2022/12/21 02:05:20;;;;;;;3.07;2.30;;;9.60;99.90;;;9.68;nan;100378.94;4974191;28;20626;-65
2022/12/21 02:07:47;;;;;;;3.10;2.73;;;9.60;99.90;;;9.61;nan;100362.09;4973197;28;21245;-65
2022/12/21 02:10:14;;;;;;;4.70;3.87;;;9.50;99.90;;;9.67;nan;100366.88;4991761;28;20898;-65
2022/12/21 02:12:43;;;;;;;3.13;2.90;;;9.50;99.90;;;9.66;nan;100366.03;4989528;28;20631;-65
2022/12/21 02:15:10;;;;;;;1.77;1.60;;;9.50;99.90;;;9.49;nan;100356.00;4991651;28;20696;-65
2022/12/21 02:17:53;;;;;;;0.80;0.80;;;9.50;99.90;;;9.56;nan;100353.78;4969628;28;20645;-65
2022/12/21 02:21:04;;;;;;;3.17;2.03;;;9.50;99.90;;;9.70;nan;100362.28;4986757;28;21358;-66
2022/12/21 02:23:47;;;;;;;1.30;1.20;;;9.50;99.90;;;9.63;nan;100362.81;4975711;28;20639;-65
2022/12/21 02:27:08;;;;;;;1.87;1.70;;;9.60;99.90;;;9.74;nan;100363.72;4971971;28;20635;-64
2022/12/21 02:30:05;;;;;;;6.17;4.67;;;9.50;99.90;;;9.78;nan;100369.53;4984368;28;20674;-65
2022/12/21 02:33:15;;;;;;;5.53;4.10;;;9.60;99.90;;;9.83;nan;100362.22;4990600;28;20637;-65
2022/12/21 02:36:18;;;;;;;4.57;2.93;;;9.60;99.90;;;9.92;nan;100358.94;4990930;28;20642;-65
2022/12/21 02:38:59;;;;;;;2.27;1.90;;;9.70;99.90;;;9.69;nan;100365.00;4990722;28;20659;-65
2022/12/21 02:41:41;;;;;;;2.97;2.67;;;9.70;99.90;;;9.72;nan;100359.56;4990528;28;21283;-65
2022/12/21 02:44:29;;;;;;;1.37;1.27;;;9.60;99.90;;;9.68;nan;100363.31;4991868;28;20610;-65
2022/12/21 02:47:22;;;;;;;1.57;1.47;;;9.60;99.90;;;9.87;nan;100361.88;4973999;28;20642;-65
2022/12/21 02:49:59;;;;;;;2.20;2.00;;;9.70;99.90;;;9.75;nan;100354.94;4985872;28;20680;-65
2022/12/21 02:52:55;;;;;;;1.87;1.73;;;9.70;99.90;;;9.72;nan;100354.34;4970603;28;20631;-65
2022/12/21 02:55:26;;;;;;;1.97;1.77;;;9.70;99.90;;;9.75;nan;100359.34;4992212;28;20676;-63
2022/12/21 03:00:21;;;;;;;0.50;0.50;;;9.70;99.90;;;9.71;nan;100350.91;5007780;28;20653;-66
2022/12/21 03:06:39;;;;;;;3.40;2.47;;;9.60;99.90;;;9.89;nan;100346.13;5007671;28;20638;-66
2022/12/21 03:09:39;;;;;;;2.03;1.70;;;9.70;99.90;;;9.79;nan;100348.59;5021361;28;20668;-66
2022/12/21 03:13:13;;;;;;;4.07;2.80;;;9.70;99.90;;;9.81;nan;100343.25;5011000;28;20643;-66
2022/12/21 03:16:18;;;;;;;2.00;1.33;;;9.80;99.90;;;9.79;nan;100332.13;4999307;28;20653;-66
2022/12/21 03:18:59;;;;;;;0.93;0.93;;;9.80;99.90;;;9.81;nan;100331.06;4992510;28;21030;-66
2022/12/21 03:21:49;;;;;;;1.17;1.07;;;9.70;99.90;;;9.94;nan;100329.22;4998734;28;20638;-66
2022/12/21 03:24:26;;;;;;;2.60;1.87;;;9.80;99.90;;;9.90;nan;100326.94;5007940;28;20629;-66
2022/12/21 03:26:58;;;;;;;1.20;1.10;;;9.80;99.90;;;9.95;nan;100335.25;5006024;28;20633;-64
2022/12/21 03:29:34;;;;;;;2.83;2.20;;;9.80;99.90;;;10.07;nan;100327.34;4982951;28;20681;-66
2022/12/21 03:32:18;;;;;;;1.93;1.83;;;9.80;99.90;;;10.02;nan;100333.84;4993454;28;20641;-66
2022/12/21 03:34:49;;;;;;;1.80;1.70;;;9.90;99.90;;;10.06;nan;100332.69;4991256;28;20639;-66
2022/12/21 03:37:23;;;;;;;2.80;2.60;;;9.90;99.90;;;10.04;nan;100324.97;5025506;28;20630;-66
2022/12/21 03:39:57;;;;;;;3.23;1.33;;;10.00;99.90;;;10.13;nan;100324.34;5011820;28;20661;-66
2022/12/21 03:42:36;;;;;;;1.83;1.73;;;10.00;99.90;;;10.10;nan;100327.16;5011149;28;20654;-66
2022/12/21 03:45:18;;;;;;;1.43;1.20;;;10.00;99.90;;;10.06;nan;100327.47;5003849;28;20653;-66
2022/12/21 03:47:57;;;;;;;2.17;1.40;;;10.00;99.90;;;10.20;nan;100324.69;5007636;28;20639;-66
2022/12/21 03:50:32;;;;;;;3.97;3.00;;;10.00;99.90;;;10.11;nan;100326.19;4992280;28;20654;-66
2022/12/21 03:53:28;;;;;;;0.83;0.83;;;10.00;99.90;;;10.11;nan;100333.22;5008371;28;20690;-66
2022/12/21 03:56:00;;;;;;;4.77;1.03;;;10.00;99.90;;;10.14;nan;100323.38;5014197;28;20637;-66
2022/12/21 03:58:28;;;;;;;4.70;2.20;;;10.10;99.90;;;10.20;nan;100314.25;5015469;28;20719;-67
2022/12/21 04:01:41;;;;;;;2.10;1.87;;;10.10;99.90;;;10.17;nan;100322.31;4998608;28;20633;-66
2022/12/21 04:04:29;;;;;;;1.17;1.07;;;10.10;99.90;;;10.28;nan;100321.50;5007655;28;20637;-65
2022/12/21 04:07:00;;;;;;;3.10;2.90;;;10.10;99.90;;;10.20;nan;100324.69;4987874;28;20633;-66
2022/12/21 04:09:27;;;;;;;2.30;2.07;;;10.10;99.90;;;10.33;nan;100329.81;4992083;28;20661;-66
2022/12/21 04:14:41;;;;;;;1.33;1.23;;;10.10;99.90;;;10.31;nan;100316.88;4995595;28;20684;-66
2022/12/21 04:17:08;;;;;;;2.40;1.93;;;10.20;99.90;;;10.34;nan;100310.59;4993771;28;21201;-67
2022/12/21 04:28:07;;;;;;;1.13;1.13;;;10.30;99.90;;;10.39;nan;100311.91;5003587;28;20699;-66
2022/12/21 04:30:54;;;;;;;1.23;1.13;;;10.30;99.90;;;10.41;nan;100315.25;5010137;28;20764;-66
2022/12/21 04:33:23;;;;;;;4.00;2.30;;;10.30;99.90;;;10.36;nan;100319.97;5009863;28;20640;-66
2022/12/21 04:38:45;;;;;;;6.20;2.67;;;10.30;99.90;;;10.55;nan;100328.06;5003158;28;20669;-66
2022/12/21 04:41:12;;;;;;;4.60;3.70;;;10.30;99.90;;;10.56;nan;100326.31;5012598;28;21013;-66
2022/12/21 04:43:40;;;;;;;2.80;2.37;;;10.30;99.90;;;10.55;nan;100330.69;4999894;28;20638;-66
2022/12/21 04:46:13;;;;;;;3.00;2.07;;;10.40;99.90;;;10.64;nan;100327.38;5012686;28;20638;-65
2022/12/21 04:48:41;;;;;;;3.00;2.20;;;10.40;99.90;;;10.31;nan;100324.72;5014521;28;20666;-66
2022/12/21 04:51:14;;;;;;;0.90;0.90;;;10.40;99.90;;;10.29;nan;100328.38;5012328;28;21227;-66
2022/12/21 04:53:41;;;;;;;1.57;1.50;;;10.30;99.90;;;10.40;nan;100326.63;5016786;28;20641;-66
2022/12/21 04:56:09;;;;;;;1.07;1.07;;;10.30;99.90;;;10.34;nan;100326.25;5011793;28;20649;-66
2022/12/21 04:58:38;;;;;;;1.60;1.50;;;10.30;99.90;;;10.40;nan;100325.78;4999554;28;20668;-65
2022/12/21 05:01:10;;;;;;;1.63;1.53;;;10.30;99.90;;;10.42;nan;100326.50;5012784;28;20625;-65
2022/12/21 05:03:38;;;;;;;5.20;2.57;;;10.30;99.90;;;10.30;nan;100319.63;5011588;28;20625;-64
2022/12/21 05:06:07;;;;;;;2.17;2.00;;;10.20;99.90;;;10.30;nan;100332.66;5011311;28;20626;-66
2022/12/21 05:08:35;;;;;;;2.60;2.20;;;10.20;99.90;;;10.33;nan;100330.63;4994316;28;21233;-66
2022/12/21 05:11:22;;;;;;;2.40;1.90;;;10.20;99.90;;;10.45;nan;100324.50;5002455;28;20663;-64
2022/12/21 05:13:50;;;;;;;2.90;1.90;;;10.30;99.90;;;10.40;nan;100334.44;5015006;28;20607;-66
2022/12/21 05:16:23;;;;;;;4.80;1.53;;;10.20;99.90;;;10.33;nan;100325.41;5010538;28;21068;-64
2022/12/21 05:18:52;;;;;;;2.30;2.13;;;10.20;99.90;;;10.56;nan;100334.94;4996557;28;20661;-67
2022/12/21 05:21:20;;;;;;;2.93;2.37;;;10.30;99.90;;;10.54;nan;100331.59;4975580;28;20995;-66
2022/12/21 05:23:47;;;;;;;1.43;1.20;;;10.30;99.90;;;10.41;nan;100328.31;4999404;28;20637;-66
2022/12/21 05:26:15;;;;;;;1.00;1.00;;;10.30;99.90;;;10.41;nan;100323.09;5013621;28;21254;-66
2022/12/21 05:28:44;;;;;;;1.40;1.30;;;10.30;99.90;;;10.40;nan;100316.19;5010369;28;20711;-66
2022/12/21 05:31:13;;;;;;;0.60;0.60;;;10.30;99.90;;;10.37;nan;100308.59;4993361;28;20654;-66
2022/12/21 05:33:40;;;;;;;2.83;2.20;;;10.30;99.90;;;10.29;nan;100308.34;4976563;28;20615;-66
2022/12/21 05:36:10;;;;;;;3.13;1.67;;;10.20;99.90;;;10.44;nan;100312.41;5032196;28;20647;-66
2022/12/21 05:38:37;;;;;;;1.10;1.00;;;10.30;99.90;;;10.50;nan;100311.13;5030900;28;20632;-66
2022/12/21 05:41:05;;;;;;;2.50;1.40;;;10.30;99.90;;;10.56;nan;100316.66;5011542;28;20648;-66
2022/12/21 05:43:32;;;;;;;1.53;1.13;;;10.30;99.90;;;10.53;nan;100316.91;4994511;28;20695;-66
2022/12/21 05:46:08;;;;;;;1.70;1.60;;;10.40;99.90;;;10.35;nan;100315.69;4996388;28;20630;-66
2022/12/21 05:48:36;;;;;;;1.73;1.57;;;10.30;99.90;;;10.47;nan;100301.75;4993799;28;20666;-66
2022/12/21 05:51:08;;;;;;;1.33;0.80;;;10.30;99.90;;;10.47;nan;100301.75;5018022;28;20867;-66
2022/12/21 05:53:37;;;;;;;2.47;2.27;;;10.40;99.90;;;10.39;nan;100292.84;5004526;28;20642;-66
2022/12/21 05:56:04;;;;;;;0.80;0.80;;;10.30;99.90;;;10.45;nan;100301.03;5006817;28;20630;-66
2022/12/21 05:58:31;;;;;;;2.83;2.57;;;10.30;99.90;;;10.48;nan;100299.94;5010767;28;20660;-66
2022/12/21 06:01:06;;;;;;;4.13;2.90;;;10.40;99.90;;;10.54;nan;100297.69;5009954;28;20637;-66
2022/12/21 06:03:34;;;;;;;1.63;1.43;;;10.40;99.90;;;10.62;nan;100292.75;5012967;28;21239;-66
2022/12/21 06:06:16;;;;;;;1.23;1.13;;;10.40;99.90;;;10.55;nan;100288.94;5022849;28;20645;-66
2022/12/21 06:08:43;;;;;;;1.60;1.50;;;10.40;99.90;;;10.51;nan;100284.91;4993895;28;20672;-66
2022/12/21 06:11:17;;;;;;;1.60;1.03;;;10.40;99.90;;;10.57;nan;100292.25;5010726;28;21101;-66
2022/12/21 06:13:45;;;;;;;2.63;1.70;;;10.40;99.90;;;10.58;nan;100280.88;5011892;28;20638;-66
2022/12/21 06:16:16;;;;;;;1.17;1.00;;;10.40;99.90;;;10.55;nan;100288.09;4994549;28;20683;-66
2022/12/21 06:18:43;;;;;;;3.67;3.10;;;10.40;99.90;;;10.62;nan;100286.69;5024852;28;20656;-66
2022/12/21 06:21:12;;;;;;;2.00;1.80;;;10.40;99.90;;;10.59;nan;100287.75;5001472;28;21221;-66
2022/12/21 06:23:41;;;;;;;1.80;1.70;;;10.40;99.90;;;10.70;nan;100276.47;5010333;28;20696;-66
2022/12/21 06:26:12;;;;;;;2.03;1.93;;;10.50;99.90;;;10.62;nan;100292.75;5010745;28;21046;-66
2022/12/21 06:28:39;;;;;;;2.20;2.00;;;10.40;99.90;;;10.74;nan;100288.34;5011349;28;21059;-66
2022/12/21 06:31:11;;;;;;;2.70;2.30;;;10.50;99.90;;;10.74;nan;100291.78;5014402;28;20676;-66
2022/12/21 06:33:39;;;;;;;4.77;3.80;;;10.50;99.90;;;10.73;nan;100291.91;5011612;28;20616;-66
2022/12/21 06:36:09;;;;;;;3.43;2.63;;;10.50;99.90;;;10.72;nan;100292.84;5008950;28;20695;-66
2022/12/21 06:38:36;;;;;;;1.70;1.60;;;10.50;99.90;;;10.78;nan;100303.63;5010126;28;21209;-65
2022/12/21 06:41:10;;;;;;;2.80;1.87;;;10.50;99.90;;;10.76;nan;100302.94;5022283;28;20637;-66
2022/12/21 06:43:38;;;;;;;2.37;2.17;;;10.50;99.90;;;10.83;nan;100303.28;5029536;28;20682;-66
2022/12/21 06:46:11;;;;;;;2.53;2.20;;;10.60;99.90;;;10.82;nan;100305.06;5005570;28;20683;-66
2022/12/21 06:48:39;;;;;;;4.10;3.70;;;10.60;99.90;;;10.69;nan;100309.56;4988910;28;20658;-66
2022/12/21 06:51:13;;;;;;;1.90;1.80;;;10.50;99.90;;;10.74;nan;100307.44;5008876;28;20673;-66
2022/12/21 06:53:43;;;;;;;1.60;1.50;;;10.50;99.90;;;10.76;nan;100305.53;5010020;28;21186;-66
2022/12/21 06:56:25;;;;;;;2.67;2.00;;;10.50;99.90;;;10.76;nan;100312.53;5005523;28;20637;-66
2022/12/21 06:58:54;;;;;;;2.83;2.43;;;10.50;99.90;;;10.77;nan;100311.59;5028199;28;20644;-66
2022/12/21 07:01:24;;;;;;;2.13;2.00;;;10.50;99.90;;;10.78;nan;100300.19;5020865;28;20760;-66
2022/12/21 07:03:52;;;;;;;1.70;1.70;;;10.60;99.90;;;10.74;nan;100311.81;4975312;28;20607;-66
2022/12/21 07:06:21;;;;;;;0.70;0.70;;;10.50;99.90;;;10.64;nan;100313.50;5010110;28;20637;-66
2022/12/21 07:08:48;;;;;;;1.50;1.23;;;10.60;99.90;;;10.72;nan;100316.31;5008775;28;20699;-66
2022/12/21 07:11:19;;;;;;;2.43;1.70;;;10.60;99.90;;;10.71;nan;100315.50;5023918;28;20672;-67
2022/12/21 07:13:48;;;;;;;1.73;1.63;;;10.60;99.90;;;10.75;nan;100321.31;5028989;28;20619;-66
2022/12/21 07:16:16;;;;;;;0.93;0.93;;;10.50;99.90;;;10.83;nan;100326.78;5013604;28;20642;-66
2022/12/21 07:18:44;;;;;;;1.00;1.00;;;10.60;99.90;;;10.75;nan;100327.34;4992157;28;20651;-66
2022/12/21 07:21:14;;;;;;;1.97;1.53;;;10.60;99.90;;;10.66;nan;100327.25;5005938;28;20671;-66
2022/12/21 07:23:43;;;;;;;1.27;1.17;;;10.60;99.90;;;10.67;nan;100329.72;5024428;28;20634;-66
2022/12/21 07:26:19;;;;;;;0.90;0.90;;;10.60;99.90;;;10.62;nan;100326.66;5009708;28;20630;-66
2022/12/21 07:28:47;;;;;;;2.57;1.90;;;10.50;99.90;;;10.64;nan;100334.38;4992359;28;21338;-65
2022/12/21 07:31:22;;;;;;;2.33;1.93;;;10.50;99.90;;;10.59;nan;100334.72;5011045;28;20661;-65
2022/12/21 07:33:49;;;;;;;2.00;1.70;;;10.50;99.90;;;10.63;nan;100341.34;5009788;28;20705;-66
2022/12/21 07:36:17;;;;;;;0.50;0.50;;;10.50;99.90;;;10.53;nan;100342.16;5011691;28;20668;-66
2022/12/21 07:38:44;;;;;;;2.10;1.87;;;10.40;99.90;;;10.63;nan;100332.69;5008423;28;20664;-66
2022/12/21 07:41:15;;;;;;;1.47;1.47;;;10.50;99.90;;;10.49;nan;100346.81;4994983;28;20720;-66
2022/12/21 07:43:42;;;;;;;1.03;1.03;;;10.50;99.90;;;10.53;nan;100339.56;5008723;28;20687;-65
2022/12/21 07:46:10;;;;;;;2.30;1.67;;;10.40;99.90;;;10.51;nan;100347.50;5009544;28;20680;-66
2022/12/21 07:48:37;;;;;;;1.80;1.70;;;10.40;99.90;;;10.59;nan;100346.91;5009626;28;20657;-65
2022/12/21 07:51:05;;;;;;;1.27;1.17;;;10.40;99.90;;;10.47;nan;100356.53;5010302;28;20661;-66
2022/12/21 07:53:33;;;;;;;2.00;1.60;;;10.40;99.90;;;10.47;nan;100353.91;5009718;28;20660;-66
2022/12/21 07:56:03;;;;;;;2.83;1.67;;;10.40;99.90;;;10.51;nan;100355.34;5009356;28;20644;-66
2022/12/21 07:58:30;;;;;;;1.87;1.77;;;10.40;99.90;;;10.50;nan;100358.06;5005581;28;20674;-66
2022/12/21 08:01:13;;;;;;;2.70;2.13;;;10.40;99.90;;;10.44;nan;100358.50;5017938;28;22228;-66
2022/12/21 08:03:41;;;;;;;1.50;1.40;;;10.30;99.90;;;10.59;nan;100359.97;5010533;28;20695;-66
2022/12/21 08:06:09;;;;;;;0.73;0.73;;;10.40;99.90;;;10.60;nan;100359.88;5003064;28;20626;-66
2022/12/21 08:08:37;;;;;;;2.70;2.50;;;10.40;99.90;;;10.50;nan;100355.47;5010412;28;21070;-67
2022/12/21 08:11:09;;;;;;;4.00;1.40;;;10.40;99.90;;;10.51;nan;100365.78;5010209;28;21303;-66
2022/12/21 08:13:36;;;;;;;2.23;2.13;;;10.40;99.90;;;10.49;nan;100362.44;5014407;28;20634;-66
2022/12/21 08:16:06;;;;;;;2.60;1.60;;;10.40;99.90;;;10.58;nan;100368.75;5013148;28;21086;-66
2022/12/21 08:18:33;;;;;;;2.63;2.43;;;10.40;99.90;;;10.60;nan;100372.06;4989344;28;21015;-65
2022/12/21 08:21:00;;;;;;;2.23;2.03;;;10.40;99.90;;;10.50;nan;100371.13;5013349;28;20629;-66
2022/12/21 08:23:27;;;;;;;1.23;1.13;;;10.50;99.90;;;10.62;nan;100364.97;5011862;28;20633;-66
2022/12/21 08:25:54;;;;;;;3.27;2.27;;;10.40;99.90;;;10.57;nan;100367.91;5024900;28;20644;-66
2022/12/21 08:28:21;;;;;;;3.00;2.63;;;10.40;99.90;;;10.63;nan;100364.84;5026263;28;20670;-66
2022/12/21 08:30:48;;;;;;;2.03;1.90;;;10.50;99.90;;;10.59;nan;100366.00;5014316;28;20679;-65
2022/12/21 08:33:16;;;;;;;2.67;2.50;;;10.50;99.90;;;10.53;nan;100369.09;5012580;28;20629;-66
2022/12/21 08:35:43;;;;;;;1.70;1.60;;;10.50;99.90;;;10.71;nan;100365.06;5014296;28;20888;-66
2022/12/21 08:38:11;;;;;;;2.63;2.40;;;10.50;99.90;;;10.65;nan;100369.91;5011884;28;20721;-64
2022/12/21 08:41:03;;;;;;;1.30;1.30;;;10.50;99.90;;;10.62;nan;100364.97;5016468;28;20660;-66
2022/12/21 08:43:30;;;;;;;2.63;2.43;;;10.50;99.90;;;10.80;nan;100368.75;4995051;28;20618;-66
2022/12/21 08:45:57;;;;;;;2.03;1.77;;;10.50;99.90;;;10.68;nan;100370.53;5020323;28;21186;-66
2022/12/21 08:48:24;;;;;;;1.67;1.47;;;10.50;99.90;;;10.71;nan;100366.88;4995185;28;20657;-66
2022/12/21 08:50:56;;;;;;;2.10;2.00;;;10.50;99.90;;;10.71;nan;100362.47;5014253;28;21248;-67
2022/12/21 08:53:24;;;;;;;1.53;1.43;;;10.60;99.90;;;10.80;nan;100361.75;4995841;28;21208;-67
2022/12/21 08:55:51;;;;;;;2.30;2.10;;;10.60;99.90;;;10.93;nan;100372.09;4994181;28;20638;-66
2022/12/21 09:00:54;;;;;;;3.20;1.63;;;10.70;99.90;;;10.87;nan;100367.34;4991128;28;20658;-67
2022/12/21 09:03:22;;;;;;;1.37;1.33;;;10.70;99.90;;;10.87;nan;100376.00;4989405;28;20975;-68
2022/12/21 09:05:58;;;;;;;0.90;0.90;;;10.70;99.90;;;11.06;nan;100379.78;4993255;28;20630;-66
2022/12/21 09:08:33;;;;;;;0.77;0.73;;;10.80;99.90;;;10.99;nan;100373.41;4993079;28;20646;-67
2022/12/21 09:11:04;;;;;;;1.60;0.70;;;10.80;99.90;;;10.94;nan;100371.94;4992549;28;20670;-67
2022/12/21 09:13:31;;;;;;;2.20;2.00;;;10.80;99.90;;;11.10;nan;100370.75;4993007;28;20631;-67
2022/12/21 09:15:59;;;;;;;1.80;1.50;;;10.90;99.90;;;10.99;nan;100381.25;4985708;28;21039;-67
2022/12/21 09:18:26;;;;;;;1.90;1.80;;;10.90;99.90;;;11.00;nan;100375.06;4992240;28;20645;-67
2022/12/21 09:20:54;;;;;;;1.80;1.70;;;10.90;99.90;;;11.08;nan;100380.50;4989064;28;20632;-67
2022/12/21 09:23:22;;;;;;;2.87;1.30;;;10.90;99.90;;;11.08;nan;100386.56;4987582;28;20650;-67
2022/12/21 09:25:48;;;;;;;5.53;2.30;;;10.90;99.90;;;11.03;nan;100387.88;4992903;28;20983;-66
2022/12/21 09:28:15;;;;;;;1.40;1.30;;;10.90;99.90;;;11.07;nan;100389.28;4992910;28;20626;-67
2022/12/21 09:30:42;;;;;;;1.63;1.53;;;10.90;99.90;;;10.99;nan;100391.69;4991620;28;20670;-67
2022/12/21 09:33:09;;;;;;;1.63;1.53;;;10.90;99.90;;;11.00;nan;100391.56;4992572;28;21033;-67
2022/12/21 09:35:38;;;;;;;1.90;1.80;;;10.90;99.90;;;11.09;nan;100403.06;4991669;28;21288;-67
2022/12/21 09:38:05;;;;;;;0.93;0.93;;;10.90;99.90;;;10.96;nan;100392.75;4992550;28;21252;-67
2022/12/21 09:40:34;;;;;;;2.73;1.70;;;10.90;99.90;;;11.07;nan;100394.53;4988577;28;20663;-67
2022/12/21 09:43:19;;;;;;;2.70;2.03;;;10.90;99.90;;;11.19;nan;100389.16;4993809;28;20629;-68
2022/12/21 09:46:03;;;;;;;2.90;1.80;;;10.90;99.90;;;11.16;nan;100388.59;4992541;28;20645;-66
2022/12/21 09:48:53;;;;;;;2.10;1.90;;;11.00;99.90;;;11.15;nan;100390.38;4975097;28;20642;-66
2022/12/21 09:51:29;;;;;;;2.30;1.97;;;10.90;99.90;;;11.02;nan;100386.19;4976065;28;20728;-67
2022/12/21 09:54:12;;;;;;;2.97;2.37;;;10.90;99.90;;;11.01;nan;100392.38;4986288;28;20670;-68
2022/12/21 09:56:46;;;;;;;5.00;1.93;;;10.90;99.90;;;11.16;nan;100394.63;4975687;28;20657;-69
2022/12/21 09:59:17;;;;;;;1.80;1.70;;;10.90;99.90;;;11.34;nan;100397.59;4991020;28;20670;-67
2022/12/21 10:02:03;;;;;;;1.10;1.10;;;11.00;99.90;;;11.31;nan;100398.66;4975680;28;20650;-67
2022/12/21 10:04:39;;;;;;;1.77;1.67;;;11.00;99.90;;;11.39;nan;100400.69;4974783;28;20646;-67
2022/12/21 10:08:05;;;;;;;2.50;2.37;;;11.00;99.90;;;11.42;nan;100400.41;4992499;28;20619;-67
2022/12/21 10:10:40;;;;;;;2.13;2.03;;;11.10;99.90;;;11.78;nan;100400.13;4991367;28;20732;-67
2022/12/21 10:13:39;;;;;;;0.73;0.73;;;11.30;99.90;;;11.78;nan;100394.06;4972907;28;20635;-67
2022/12/21 10:16:27;;;;;;;2.93;2.23;;;11.50;99.90;;;12.13;nan;100403.34;4984640;28;20639;-67
2022/12/21 10:19:32;;;;;;;0.60;0.60;;;11.70;99.90;;;12.16;nan;100413.53;4986885;28;20662;-67
2022/12/21 10:22:17;;;;;;;0.90;0.90;;;11.80;99.90;;;12.10;nan;100406.19;4966430;28;20941;-67
2022/12/21 10:24:52;;;;;;;2.33;2.17;;;11.80;99.90;;;12.13;nan;100395.50;4991612;28;20689;-67
2022/12/21 10:27:42;;;;;;;2.70;2.50;;;11.80;99.90;;;11.67;nan;100393.16;4955944;28;20653;-67
2022/12/21 10:30:13;;;;;;;1.80;1.70;;;11.70;99.90;;;11.82;nan;100391.09;4958996;28;20659;-66
2022/12/21 10:32:45;;;;;;;1.20;1.20;;;11.60;99.90;;;11.89;nan;100394.88;4990686;28;20635;-67
2022/12/21 10:35:38;;;;;;;0.53;0.53;;;11.60;99.90;;;11.84;nan;100393.59;4984421;28;20639;-68
2022/12/21 10:38:15;;;;;;;1.77;1.67;;;11.60;99.90;;;11.86;nan;100386.47;4966345;28;20634;-67
2022/12/21 10:40:47;;;;;;;1.87;1.77;;;11.60;99.90;;;11.90;nan;100388.72;4974324;28;20658;-67
2022/12/21 10:43:15;;;;;;;7.80;2.40;;;11.60;99.90;;;12.08;nan;100388.97;4992380;28;20673;-67
2022/12/21 10:45:42;;;;;;;2.83;2.63;;;11.70;99.90;;;12.21;nan;100389.63;4992555;28;20709;-66
2022/12/21 10:48:11;;;;;;;2.93;2.63;;;11.80;99.90;;;12.23;nan;100393.78;4991148;28;20634;-67
2022/12/21 10:50:42;;;;;;;2.40;2.10;;;11.90;99.90;;;12.29;nan;100390.66;4973565;28;20670;-69
2022/12/21 10:53:27;;;;;;;4.10;2.53;;;11.90;99.90;;;12.32;nan;100397.41;4974167;28;20710;-67
2022/12/21 10:55:58;;;;;;;2.73;2.53;;;11.90;99.90;;;12.30;nan;100394.09;4991791;28;20708;-67
2022/12/21 10:58:29;;;;;;;4.23;2.27;;;11.90;99.90;;;12.48;nan;100389.13;4989551;28;20669;-67
2022/12/21 11:01:06;;;;;;;3.60;2.43;;;12.00;99.90;;;12.47;nan;100388.31;4992664;28;21285;-67
2022/12/21 11:03:37;;;;;;;2.90;2.70;;;12.10;99.90;;;12.58;nan;100390.03;4972852;28;20646;-67
2022/12/21 11:06:31;;;;;;;2.30;2.20;;;12.20;99.90;;;12.54;nan;100386.00;4969811;28;20674;-67
2022/12/21 11:08:58;;;;;;;2.33;2.23;;;12.10;99.90;;;12.58;nan;100393.47;4981248;28;20686;-67
2022/12/21 11:11:37;;;;;;;3.10;2.50;;;12.10;99.90;;;12.47;nan;100388.31;4973327;28;20666;-66
2022/12/21 11:14:16;;;;;;;1.73;1.63;;;12.20;99.90;;;12.52;nan;100383.53;4990630;28;20956;-67
2022/12/21 11:16:45;;;;;;;5.30;2.10;;;12.20;99.90;;;12.30;nan;100384.47;4973936;28;20696;-66
2022/12/21 11:19:18;;;;;;;2.23;2.07;;;12.10;99.90;;;12.39;nan;100382.88;4984426;28;20676;-66
2022/12/21 11:21:57;;;;;;;1.57;1.47;;;12.10;99.90;;;12.33;nan;100381.59;4985719;28;21250;-67